createdAt,value
2023-05-17T00:02:04.403Z,99242.25
2023-05-17T00:06:07.743Z,99246.72
2023-05-17T00:10:11.269Z,99246.72
2023-05-17T00:14:16.168Z,99250.31
2023-05-17T00:18:19.331Z,99252.03
2023-05-17T00:22:22.419Z,99261.78
2023-05-17T00:26:25.615Z,99260.94
2023-05-17T00:30:30.059Z,99258.31
2023-05-17T00:34:33.285Z,99266.25
2023-05-17T00:38:36.395Z,99271.59
2023-05-17T00:42:39.657Z,99270.72
2023-05-17T00:46:44.053Z,99265.44
2023-05-17T00:50:47.716Z,99269.03
2023-05-17T00:54:52.796Z,99274.34
2023-05-17T00:58:56.335Z,99274.38
2023-05-17T01:03:01.859Z,99285.00
2023-05-17T01:07:05.690Z,99283.22
2023-05-17T01:11:17.577Z,99288.56
2023-05-17T01:15:26.700Z,99291.22
2023-05-17T01:19:50.316Z,99302.69
2023-05-17T01:24:00.647Z,99302.69
2023-05-17T01:28:06.582Z,99301.84
2023-05-17T01:32:10.235Z,99305.34
2023-05-17T01:36:13.302Z,99303.66
2023-05-17T01:40:19.569Z,99308.03
2023-05-17T01:44:33.562Z,99327.34
2023-05-17T01:48:41.983Z,99328.28
2023-05-17T01:52:52.264Z,99343.25
2023-05-17T01:56:58.904Z,99338.00
2023-05-17T02:01:04.328Z,99325.69
2023-05-17T02:05:08.390Z,99343.28
2023-05-17T02:09:11.463Z,99345.09
2023-05-17T02:13:14.995Z,99348.56
2023-05-17T02:17:19.378Z,99342.44
2023-05-17T02:21:22.488Z,99355.66
2023-05-17T02:25:25.489Z,99356.59
2023-05-17T02:29:28.620Z,99349.56
2023-05-17T02:33:33.160Z,99348.69
2023-05-17T02:37:36.612Z,99359.28
2023-05-17T02:41:39.683Z,99354.03
2023-05-17T02:45:45.075Z,99368.16
2023-05-17T02:49:50.722Z,99376.09
2023-05-17T02:53:54.188Z,99368.19
2023-05-17T02:57:57.235Z,99384.09
2023-05-17T03:02:00.891Z,99379.72
2023-05-17T03:06:06.657Z,99388.53
2023-05-17T03:10:10.425Z,99378.88
2023-05-17T03:14:18.240Z,99395.66
2023-05-17T03:18:21.682Z,99397.41
2023-05-17T03:22:26.425Z,99400.06
2023-05-17T03:26:32.157Z,99408.84
2023-05-17T03:30:35.683Z,99424.75
2023-05-17T03:34:39.541Z,99430.03
2023-05-17T03:38:44.258Z,99427.41
2023-05-17T03:42:47.532Z,99443.22
2023-05-17T03:46:51.335Z,99441.50
2023-05-17T03:50:56.789Z,99444.16
2023-05-17T03:55:01.305Z,99462.59
2023-05-17T03:59:05.630Z,99468.78
2023-05-17T04:03:08.784Z,99487.28
2023-05-17T04:07:12.063Z,99493.44
2023-05-17T04:11:17.861Z,99498.78
2023-05-17T04:15:22.006Z,99500.53
2023-05-17T04:19:28.572Z,99510.19
2023-05-17T04:23:32.210Z,99532.19
2023-05-17T04:27:37.572Z,99527.78
2023-05-17T04:31:43.248Z,99536.59
2023-05-17T04:35:47.673Z,99534.81
2023-05-17T04:39:51.501Z,99526.03
2023-05-17T04:43:56.149Z,99529.59
2023-05-17T04:48:07.094Z,99548.91
2023-05-17T04:52:10.492Z,99555.06
2023-05-17T04:56:14.647Z,99559.47
2023-05-17T05:00:21.081Z,99583.19
2023-05-17T05:04:31.334Z,99573.53
2023-05-17T05:08:34.906Z,99580.53
2023-05-17T05:12:39.292Z,99585.84
2023-05-17T05:16:43.708Z,99589.38
2023-05-17T05:20:49.277Z,99593.75
2023-05-17T05:24:53.121Z,99592.88
2023-05-17T05:28:56.338Z,99607.78
2023-05-17T05:33:00.902Z,99626.22
2023-05-17T05:37:04.094Z,99627.13
2023-05-17T05:41:08.352Z,99635.88
2023-05-17T05:45:13.796Z,99644.69
2023-05-17T05:49:20.970Z,99649.06
2023-05-17T05:53:24.983Z,99660.47
2023-05-17T05:57:31.035Z,99661.34
2023-05-17T06:01:34.348Z,99666.59
2023-05-17T06:05:40.416Z,99666.59
2023-05-17T06:09:44.438Z,99673.59
2023-05-17T06:13:47.495Z,99669.22
2023-05-17T06:17:50.658Z,99677.13
2023-05-17T06:21:55.095Z,99679.75
2023-05-17T06:25:58.186Z,99683.22
2023-05-17T06:30:01.487Z,99693.75
2023-05-17T06:34:04.701Z,99687.63
2023-05-17T06:38:09.275Z,99695.53
2023-05-17T06:42:12.308Z,99700.78
2023-05-17T06:46:17.193Z,99705.19
2023-05-17T06:50:20.456Z,99713.06
2023-05-17T06:54:24.837Z,99723.59
2023-05-17T06:58:27.919Z,99734.13
2023-05-17T07:02:34.609Z,99735.88
2023-05-17T07:06:38.014Z,99744.63
2023-05-17T07:10:42.404Z,99752.53
2023-05-17T07:14:45.465Z,99754.31
2023-05-17T07:18:48.514Z,99764.81
2023-05-17T07:22:51.691Z,99771.00
2023-05-17T07:26:56.289Z,99771.84
2023-05-17T07:30:59.377Z,99785.88
2023-05-17T07:35:03.233Z,99780.59
2023-05-17T07:39:06.414Z,99794.66
2023-05-17T07:43:10.823Z,99802.56
2023-05-17T07:47:13.993Z,99799.94
2023-05-17T07:51:17.164Z,99794.66
2023-05-17T07:55:21.391Z,99798.16
2023-05-17T07:59:26.378Z,99790.28
2023-05-17T08:03:29.585Z,99798.16
2023-05-17T08:07:32.586Z,99799.03
2023-05-17T08:11:35.722Z,99804.28
2023-05-17T08:15:40.607Z,99796.41
2023-05-17T08:19:43.952Z,99797.28
2023-05-17T08:23:47.303Z,99809.59
2023-05-17T08:27:50.397Z,99811.34
2023-05-17T08:31:55.277Z,99825.41
2023-05-17T08:36:01.276Z,99832.41
2023-05-17T08:40:04.998Z,99835.03
2023-05-17T08:44:09.353Z,99844.69
2023-05-17T08:48:14.055Z,99826.31
2023-05-17T08:52:18.055Z,99828.94
2023-05-17T08:56:23.168Z,99838.56
2023-05-17T09:00:28.813Z,99835.97
2023-05-17T09:04:35.027Z,99844.75
2023-05-17T09:08:38.631Z,99851.78
2023-05-17T09:12:41.947Z,99850.94
2023-05-17T09:16:45.075Z,99863.19
2023-05-17T09:20:52.654Z,99866.72
2023-05-17T09:24:55.838Z,99871.97
2023-05-17T09:28:58.807Z,99881.63
2023-05-17T09:33:07.243Z,99884.25
2023-05-17T09:37:19.523Z,99889.56
2023-05-17T09:41:23.486Z,99887.88
2023-05-17T09:45:27.034Z,99895.75
2023-05-17T09:49:30.476Z,99900.13
2023-05-17T09:53:40.003Z,99910.59
2023-05-17T09:57:43.149Z,99921.13
2023-05-17T10:01:46.585Z,99923.75
2023-05-17T10:05:52.902Z,99927.25
2023-05-17T10:09:58.460Z,99916.69
2023-05-17T10:14:11.042Z,99925.44
2023-05-17T10:18:15.482Z,99934.22
2023-05-17T10:22:23.149Z,99946.47
2023-05-17T10:26:28.801Z,99957.00
2023-05-17T10:30:31.970Z,99960.50
2023-05-17T10:34:36.194Z,99962.22
2023-05-17T10:38:42.895Z,99961.34
2023-05-17T10:42:52.036Z,99955.22
2023-05-17T10:46:56.504Z,99955.22
2023-05-17T10:51:07.151Z,99944.69
2023-05-17T10:55:11.628Z,99949.94
2023-05-17T10:59:22.059Z,99944.69
2023-05-17T11:03:28.966Z,99951.75
2023-05-17T11:07:34.896Z,99932.44
2023-05-17T11:11:38.105Z,99933.34
2023-05-17T11:15:45.123Z,99931.59
2023-05-17T11:19:57.812Z,99941.28
2023-05-17T11:24:05.175Z,99955.38
2023-05-17T11:28:09.958Z,99965.00
2023-05-17T11:32:14.991Z,99973.78
2023-05-17T11:36:21.552Z,99983.41
2023-05-17T11:40:29.053Z,99999.22
2023-05-17T11:44:33.776Z,100020.28
2023-05-17T11:48:38.963Z,100027.34
2023-05-17T11:52:42.353Z,100030.84
2023-05-17T11:56:45.976Z,100034.44
2023-05-17T12:00:54.706Z,100023.97
2023-05-17T12:04:59.347Z,100025.72
2023-05-17T12:09:03.142Z,100022.22
2023-05-17T12:13:07.876Z,100030.97
2023-05-17T12:17:14.358Z,100018.63
2023-05-17T12:21:21.366Z,100023.91
2023-05-17T12:25:27.977Z,100016.00
2023-05-17T12:29:31.595Z,100034.44
2023-05-17T12:33:39.398Z,100027.38
2023-05-17T12:37:44.036Z,100035.28
2023-05-17T12:41:48.860Z,100025.66
2023-05-17T12:45:52.115Z,100038.81
2023-05-17T12:49:55.886Z,100041.44
2023-05-17T12:54:00.646Z,100042.28
2023-05-17T12:58:05.573Z,100038.75
2023-05-17T13:02:08.751Z,100041.38
2023-05-17T13:06:11.924Z,100047.53
2023-05-17T13:10:23.477Z,100051.00
2023-05-17T13:14:38.623Z,100050.13
2023-05-17T13:18:48.918Z,100060.63
2023-05-17T13:22:52.170Z,100061.53
2023-05-17T13:26:56.548Z,100062.41
2023-05-17T13:30:59.686Z,100069.41
2023-05-17T13:35:03.167Z,100069.41
2023-05-17T13:39:06.377Z,100077.31
2023-05-17T13:43:11.592Z,100074.69
2023-05-17T13:47:14.684Z,100074.69
2023-05-17T13:51:18.098Z,100079.97
2023-05-17T13:55:21.240Z,100085.28
2023-05-17T13:59:26.237Z,100057.19
2023-05-17T14:03:29.414Z,100066.00
2023-05-17T14:07:32.455Z,100053.72
2023-05-17T14:11:35.699Z,100073.97
2023-05-17T14:15:40.195Z,100083.69
2023-05-17T14:19:43.400Z,100090.75
2023-05-17T14:23:46.612Z,100098.66
2023-05-17T14:27:49.892Z,100104.81
2023-05-17T14:31:54.386Z,100112.72
2023-05-17T14:35:57.459Z,100117.16
2023-05-17T14:40:06.369Z,100115.38
2023-05-17T14:44:10.035Z,100121.53
2023-05-17T14:48:14.491Z,100125.03
2023-05-17T14:52:17.745Z,100128.56
2023-05-17T14:56:20.748Z,100118.91
2023-05-17T15:00:24.710Z,100116.25
2023-05-17T15:04:29.214Z,100119.75
2023-05-17T15:08:32.410Z,100121.53
2023-05-17T15:12:35.461Z,100132.91
2023-05-17T15:16:38.800Z,100141.63
2023-05-17T15:20:43.278Z,100140.75
2023-05-17T15:24:47.008Z,100131.09
2023-05-17T15:28:51.187Z,100136.31
2023-05-17T15:32:54.410Z,100129.31
2023-05-17T15:36:59.244Z,100137.22
2023-05-17T15:41:05.006Z,100132.81
2023-05-17T15:45:09.114Z,100138.09
2023-05-17T15:49:12.275Z,100152.16
2023-05-17T15:53:16.691Z,100159.16
2023-05-17T15:57:19.711Z,100159.16
2023-05-17T16:01:22.870Z,100167.03
2023-05-17T16:05:25.965Z,100158.25
2023-05-17T16:09:30.404Z,100165.28
2023-05-17T16:13:36.573Z,100146.84
2023-05-17T16:17:39.710Z,100148.59
2023-05-17T16:21:42.885Z,100155.63
2023-05-17T16:25:47.300Z,100153.88
2023-05-17T16:29:50.435Z,100160.00
2023-05-17T16:33:53.510Z,100162.63
2023-05-17T16:37:56.638Z,100167.91
2023-05-17T16:42:01.031Z,100173.19
2023-05-17T16:46:04.132Z,100162.69
2023-05-17T16:50:09.076Z,100163.56
2023-05-17T16:54:12.126Z,100164.44
2023-05-17T16:58:16.564Z,100176.75
2023-05-17T17:02:20.099Z,100195.22
2023-05-17T17:06:23.157Z,100197.78
2023-05-17T17:10:26.258Z,100216.22
2023-05-17T17:14:32.048Z,100224.16
2023-05-17T17:18:35.166Z,100226.81
2023-05-17T17:22:38.323Z,100232.97
2023-05-17T17:26:41.506Z,100228.59
2023-05-17T17:30:47.431Z,100245.31
2023-05-17T17:34:50.530Z,100240.91
2023-05-17T17:38:53.576Z,100245.28
2023-05-17T17:42:56.665Z,100253.16
2023-05-17T17:47:01.106Z,100261.13
2023-05-17T17:51:04.267Z,100268.13
2023-05-17T17:55:10.157Z,100260.22
2023-05-17T17:59:13.363Z,100264.56
2023-05-17T18:03:18.139Z,100267.22
2023-05-17T18:07:21.277Z,100265.47
2023-05-17T18:11:24.462Z,100276.94
2023-05-17T18:15:27.773Z,100269.00
2023-05-17T18:19:32.150Z,100270.72
2023-05-17T18:23:35.708Z,100272.44
2023-05-17T18:27:41.313Z,100277.69
2023-05-17T18:31:44.536Z,100285.53
2023-05-17T18:35:48.922Z,100289.91
2023-05-17T18:39:52.042Z,100294.28
2023-05-17T18:43:55.926Z,100296.00
2023-05-17T18:47:59.110Z,100291.59
2023-05-17T18:52:03.530Z,100295.03
2023-05-17T18:56:07.235Z,100311.72
2023-05-17T19:00:11.249Z,100302.94
2023-05-17T19:04:15.324Z,100304.66
2023-05-17T19:08:19.746Z,100309.91
2023-05-17T19:12:23.185Z,100309.91
2023-05-17T19:16:26.302Z,100316.88
2023-05-17T19:20:29.482Z,100316.09
2023-05-17T19:24:34.361Z,100316.94
2023-05-17T19:28:37.512Z,100318.66
2023-05-17T19:32:41.093Z,100316.09
2023-05-17T19:36:44.203Z,100325.72
2023-05-17T19:40:48.580Z,100330.94
2023-05-17T19:44:51.810Z,100330.94
2023-05-17T19:48:57.209Z,100332.72
2023-05-17T19:53:00.278Z,100332.72
2023-05-17T19:57:04.777Z,100337.16
2023-05-17T20:01:07.851Z,100331.84
2023-05-17T20:05:11.352Z,100323.94
2023-05-17T20:09:14.455Z,100323.94
2023-05-17T20:13:23.038Z,100328.28
2023-05-17T20:17:26.157Z,100337.94
2023-05-17T20:21:29.551Z,100339.69
2023-05-17T20:25:32.769Z,100347.59
2023-05-17T20:29:37.132Z,100348.50
2023-05-17T20:33:40.285Z,100337.09
2023-05-17T20:37:43.290Z,100344.13
2023-05-17T20:41:47.758Z,100339.75
2023-05-17T20:45:53.769Z,100340.56
2023-05-17T20:49:56.875Z,100333.50
2023-05-17T20:53:59.846Z,100337.91
2023-05-17T20:58:02.959Z,100344.94
2023-05-17T21:02:07.939Z,100345.84
2023-05-17T21:06:11.402Z,100345.84
2023-05-17T21:10:14.427Z,100344.97
2023-05-17T21:14:17.463Z,100345.00
2023-05-17T21:18:22.146Z,100352.06
2023-05-17T21:22:25.280Z,100344.16
2023-05-17T21:30:36.504Z,100339.75
2023-05-17T21:34:43.244Z,100348.53
2023-05-17T21:38:46.434Z,100350.31
2023-05-17T21:42:50.028Z,100356.44
2023-05-17T21:46:53.231Z,100364.34
2023-05-17T21:50:57.683Z,100366.91
2023-05-17T21:55:00.814Z,100353.75
2023-05-17T21:59:03.795Z,100360.75
2023-05-17T22:03:07.001Z,100368.66
2023-05-17T22:07:13.296Z,100357.28
2023-05-17T22:11:18.215Z,100351.16
2023-05-17T22:15:21.979Z,100355.53
2023-05-17T22:19:25.115Z,100356.41
2023-05-17T22:23:29.490Z,100352.00
2023-05-17T22:27:32.671Z,100343.22
2023-05-17T22:31:37.935Z,100353.69
2023-05-17T22:35:41.457Z,100360.72
2023-05-17T22:39:45.964Z,100352.84
2023-05-17T22:43:50.017Z,100359.00
2023-05-17T22:47:54.271Z,100350.22
2023-05-17T22:52:05.344Z,100352.84
2023-05-17T22:56:09.761Z,100355.50
2023-05-17T23:00:13.760Z,100355.50
2023-05-17T23:04:16.811Z,100355.50
2023-05-17T23:08:22.366Z,100346.75
2023-05-17T23:12:28.199Z,100339.69
2023-05-17T23:16:31.408Z,100336.16
2023-05-17T23:20:35.003Z,100335.31
2023-05-17T23:24:38.803Z,100333.53
2023-05-17T23:28:43.487Z,100330.84
2023-05-17T23:32:48.743Z,100328.22
2023-05-17T23:36:51.731Z,100331.72
2023-05-17T23:40:56.380Z,100325.56
2023-05-17T23:45:01.002Z,100322.94
2023-05-17T23:49:04.971Z,100325.59
2023-05-17T23:53:09.524Z,100309.75
2023-05-17T23:57:12.685Z,100306.22
